CYTZ/YTZ METAR and TAF weather

Enter ICAO airport designator
Station Type Date Time Source
CYTZ METAR 2017/07/25 14:00 UTC NOAA

CYTZ 251400Z AUTO 03005KT 9SM SCT032 19/12 A3018 RMK SLP221 DENSITY ALT 400FT


Station Type Date Time Source
CYTZ Decoded METAR 2017/07/25 14:00 UTC NOAA

Toronto Island Airport Automated Reporting Station, Canada (CYTZ) 43-38N 079-24W
Jul 25, 2017 - 10:00 AM EDT / 2017.07.25 1400 UTC
Wind: from the NNE (030 degrees) at 6 MPH (5 KT):0
Visibility: 9 mile(s):0
Sky conditions: partly cloudy
Temperature: 66 F (19 C)
Dew Point: 53 F (12 C)
Relative Humidity: 63%
Pressure (altimeter): 30.18 in. Hg (1022 hPa)
ob: CYTZ 251400Z AUTO 03005KT 9SM SCT032 19/12 A3018 RMK SLP221 DENSITY ALT 400FT
cycle: 14

Station Type Date Time Source
CYTZ TAF 2017/07/25 14:43 UTC NOAA

TAF CYTZ 251339Z 2514/2614 04010KT P6SM BKN030
FM251600 06008KT P6SM SCT030
TEMPO 2516/2521 BKN030
BECMG 2516/2518 10008KT
FM252100 16008KT P6SM FEW030
BECMG 2522/2524 11008KT
RMK FCST BASED ON AUTO OBS. NXT FCST BY 252000Z


Example: see airport list